Time;durP1;ratioP1;P1;durP2;ratioP2;P2;SDS_P1;SDS_P2;PMS_P1;PMS_P2;Temp;Humidity;BMP_temperature;BMP_pressure;BME280_temperature;BME280_humidity;BME280_pressure;Samples;Min_cycle;Max_cycle;Signal;HPM_P1;HPM_P2
2022/01/27 00:01:44;;;;;;;9.23;7.43;;;-0.20;99.90;;;;;;5069729;28;20183;-71
2022/01/27 00:04:05;;;;;;;9.93;7.50;;;-0.20;99.90;;;;;;5070928;28;20241;-71
2022/01/27 00:06:33;;;;;;;8.70;7.80;;;-0.30;99.90;;;;;;5069138;28;20222;-71
2022/01/27 00:09:09;;;;;;;7.13;5.60;;;-0.30;99.90;;;;;;5076873;28;20166;-71
2022/01/27 00:11:35;;;;;;;9.63;8.13;;;-0.20;99.90;;;;;;5069947;28;20275;-71
2022/01/27 00:14:02;;;;;;;9.67;8.27;;;-0.30;99.90;;;;;;5072361;28;20270;-71
2022/01/27 00:16:30;;;;;;;10.57;8.60;;;-0.30;99.90;;;;;;5070458;28;20253;-71
2022/01/27 00:18:57;;;;;;;9.53;7.60;;;-0.30;99.90;;;;;;5073505;28;20190;-71
2022/01/27 00:21:28;;;;;;;6.53;5.70;;;-0.30;99.90;;;;;;5068025;28;20190;-71
2022/01/27 00:23:54;;;;;;;7.87;7.07;;;-0.20;99.90;;;;;;5071767;28;20694;-71
2022/01/27 00:26:20;;;;;;;10.90;8.63;;;-0.20;99.90;;;;;;5070434;28;20692;-71
2022/01/27 00:28:47;;;;;;;6.33;4.93;;;-0.30;99.90;;;;;;5069852;28;20195;-71
2022/01/27 00:31:15;;;;;;;8.73;7.00;;;-0.30;99.90;;;;;;5071453;28;20184;-71
2022/01/27 00:33:43;;;;;;;12.67;8.97;;;-0.30;99.90;;;;;;5070836;28;20194;-71
2022/01/27 00:36:08;;;;;;;9.07;7.70;;;-0.30;99.90;;;;;;5072417;28;20198;-71
2022/01/27 00:38:34;;;;;;;9.37;7.50;;;-0.30;99.90;;;;;;5073811;28;20290;-71
2022/01/27 00:41:00;;;;;;;8.47;7.57;;;-0.30;99.90;;;;;;5069390;28;20178;-71
2022/01/27 00:43:25;;;;;;;7.03;6.30;;;-0.30;99.90;;;;;;5072513;28;20183;-71
2022/01/27 00:45:51;;;;;;;7.97;7.17;;;-0.30;99.90;;;;;;5072520;28;20547;-71
2022/01/27 00:48:17;;;;;;;7.43;6.67;;;-0.30;99.90;;;;;;5070489;28;20551;-71
2022/01/27 00:50:48;;;;;;;11.00;8.40;;;-0.30;99.90;;;;;;5069976;28;20638;-71
2022/01/27 00:54:04;;;;;;;8.83;7.67;;;-0.30;99.90;;;;;;5072871;28;20195;-71
2022/01/27 00:56:16;;;;;;;10.23;9.07;;;-0.30;99.90;;;;;;5062557;28;20581;-71
2022/01/27 01:01:33;;;;;;;7.63;5.67;;;-0.10;99.90;;;;;;5069046;28;20236;-71
2022/01/27 01:04:02;;;;;;;7.93;7.13;;;-0.10;99.90;;;;;;5075759;28;20660;-71
2022/01/27 01:19:26;;;;;;;8.73;7.70;;;0.00;99.90;;;;;;5068279;28;20189;-71
2022/01/27 01:29:26;;;;;;;10.47;8.27;;;0.00;99.90;;;;;;5071584;28;20232;-71
2022/01/27 01:35:11;;;;;;;12.77;9.40;;;-0.40;99.90;;;;;;5065971;28;20180;-71
2022/01/27 01:37:40;;;;;;;14.03;10.00;;;-0.30;99.90;;;;;;5057523;28;20200;-71
2022/01/27 01:40:10;;;;;;;13.77;10.23;;;-0.20;99.90;;;;;;5063811;28;20645;-71
2022/01/27 01:42:37;;;;;;;13.33;10.23;;;-0.20;99.90;;;;;;5064755;28;21131;-71
2022/01/27 01:45:09;;;;;;;12.77;10.53;;;-0.30;99.90;;;;;;5061986;28;20203;-71
2022/01/27 01:47:35;;;;;;;11.57;9.73;;;-0.20;99.90;;;;;;5059819;28;20582;-71
2022/01/27 01:50:01;;;;;;;12.70;9.03;;;-0.20;99.90;;;;;;5063176;28;20187;-71
2022/01/27 01:52:27;;;;;;;14.57;10.13;;;-0.10;99.90;;;;;;5061068;28;20182;-72
2022/01/27 01:54:56;;;;;;;11.40;8.53;;;0.00;99.90;;;;;;5060974;28;20595;-71
2022/01/27 01:57:22;;;;;;;12.67;10.00;;;-0.10;99.90;;;;;;5060893;28;20212;-72
2022/01/27 01:59:48;;;;;;;13.23;10.07;;;-0.10;99.90;;;;;;5064691;28;20218;-72
2022/01/27 02:02:14;;;;;;;14.00;10.70;;;-0.10;99.90;;;;;;5061829;28;20280;-72
2022/01/27 02:04:40;;;;;;;15.27;10.40;;;-0.20;99.90;;;;;;5065535;28;20283;-72
2022/01/27 02:07:16;;;;;;;13.57;10.13;;;-0.30;99.90;;;;;;5066064;28;20199;-72
2022/01/27 02:10:06;;;;;;;14.20;10.33;;;-0.30;99.90;;;;;;5065061;28;20646;-72
2022/01/27 02:20:26;;;;;;;16.23;11.20;;;-0.30;99.90;;;;;;5071407;28;20653;-72
2022/01/27 02:22:52;;;;;;;14.33;11.13;;;-0.30;99.90;;;;;;5068888;28;20198;-72
2022/01/27 02:25:17;;;;;;;14.53;10.63;;;-0.40;99.90;;;;;;5065726;28;20211;-72
2022/01/27 02:27:44;;;;;;;15.30;11.77;;;-0.30;99.90;;;;;;5066513;28;20195;-72
2022/01/27 02:30:10;;;;;;;15.83;11.90;;;-0.30;99.90;;;;;;5064644;28;20171;-72
2022/01/27 02:32:36;;;;;;;14.13;10.00;;;-0.20;99.90;;;;;;5074998;28;20179;-72
2022/01/27 02:35:03;;;;;;;14.10;11.47;;;-0.20;99.90;;;;;;5063082;28;20187;-72
2022/01/27 02:37:29;;;;;;;15.10;11.67;;;-0.20;99.90;;;;;;5064148;28;20683;-72
2022/01/27 02:39:55;;;;;;;16.10;11.70;;;-0.20;99.90;;;;;;5066347;28;20171;-72
2022/01/27 02:42:33;;;;;;;15.50;10.37;;;-0.10;99.90;;;;;;5071829;28;20179;-71
2022/01/27 02:45:08;;;;;;;14.13;10.83;;;0.00;99.90;;;;;;5052998;28;20291;-72
2022/01/27 02:47:34;;;;;;;19.23;13.30;;;0.00;99.90;;;;;;5068022;28;20207;-72
2022/01/27 02:50:00;;;;;;;14.10;9.33;;;0.00;99.90;;;;;;5071531;28;20178;-72
2022/01/27 02:52:26;;;;;;;13.63;10.97;;;-0.10;99.90;;;;;;5065621;28;20232;-72
2022/01/27 02:54:52;;;;;;;14.27;9.73;;;0.10;99.90;;;;;;5070153;28;20222;-72
2022/01/27 02:57:19;;;;;;;15.37;11.03;;;0.10;99.90;;;;;;5065548;28;20273;-72
2022/01/27 02:59:45;;;;;;;16.53;11.63;;;0.00;99.90;;;;;;5072635;28;20182;-72
2022/01/27 03:02:11;;;;;;;13.40;10.63;;;-0.10;99.90;;;;;;5068283;28;20180;-72
2022/01/27 03:04:36;;;;;;;14.90;10.03;;;-0.10;99.90;;;;;;5055551;28;20693;-72
2022/01/27 03:07:07;;;;;;;14.10;10.43;;;0.00;99.90;;;;;;5065565;28;20561;-72
2022/01/27 03:09:33;;;;;;;11.20;8.90;;;0.00;99.90;;;;;;5068969;28;20183;-72
2022/01/27 03:12:00;;;;;;;15.23;9.93;;;0.00;99.90;;;;;;5069458;28;20217;-72
2022/01/27 03:14:26;;;;;;;13.80;9.60;;;0.00;99.90;;;;;;5062377;28;20214;-72
2022/01/27 03:16:54;;;;;;;15.57;10.57;;;0.00;99.90;;;;;;5068192;28;20203;-72
2022/01/27 03:19:20;;;;;;;15.30;11.00;;;0.00;99.90;;;;;;5071104;28;20209;-71
2022/01/27 03:21:46;;;;;;;13.67;10.17;;;-0.10;99.90;;;;;;5060613;28;20461;-72
2022/01/27 03:24:11;;;;;;;13.77;10.87;;;-0.20;99.90;;;;;;5065176;28;20258;-72
2022/01/27 03:26:37;;;;;;;13.27;10.00;;;-0.20;99.90;;;;;;5067613;28;20684;-72
2022/01/27 03:29:04;;;;;;;10.10;6.67;;;-0.30;99.90;;;;;;5076016;28;20531;-72
2022/01/27 03:31:29;;;;;;;16.03;10.97;;;-0.20;99.90;;;;;;5074695;28;20180;-72
2022/01/27 03:33:55;;;;;;;15.13;10.50;;;-0.10;99.90;;;;;;5075542;28;20662;-72
2022/01/27 03:36:21;;;;;;;17.73;12.27;;;-0.10;99.90;;;;;;5064892;28;20214;-72
2022/01/27 03:38:47;;;;;;;18.30;12.30;;;-0.10;99.90;;;;;;5074650;28;20532;-72
2022/01/27 03:41:18;;;;;;;15.90;12.00;;;-0.10;99.90;;;;;;5075287;28;20330;-72
2022/01/27 03:43:44;;;;;;;15.40;10.57;;;-0.10;99.90;;;;;;5068331;28;20677;-72
2022/01/27 03:46:10;;;;;;;14.20;10.73;;;-0.10;99.90;;;;;;5064993;28;20222;-72
2022/01/27 03:48:36;;;;;;;8.07;6.20;;;0.10;99.90;;;;;;5075160;28;20191;-72
2022/01/27 03:51:02;;;;;;;12.27;10.23;;;0.10;99.90;;;;;;5071623;28;20189;-72
2022/01/27 03:53:28;;;;;;;15.97;11.80;;;0.10;99.90;;;;;;5071997;28;20684;-72
2022/01/27 03:55:53;;;;;;;15.93;10.03;;;0.10;99.90;;;;;;5075427;28;20207;-72
2022/01/27 03:58:19;;;;;;;15.40;9.67;;;0.10;99.90;;;;;;5073630;28;20193;-72
2022/01/27 04:00:45;;;;;;;14.10;10.27;;;0.20;99.90;;;;;;5069773;28;20194;-72
2022/01/27 04:03:13;;;;;;;9.03;6.53;;;0.20;99.90;;;;;;5072859;28;20653;-72
2022/01/27 04:05:49;;;;;;;14.90;10.83;;;0.20;99.90;;;;;;5066256;28;20246;-72
2022/01/27 04:08:16;;;;;;;13.17;11.33;;;0.30;99.90;;;;;;5072414;28;20650;-71
2022/01/27 04:10:42;;;;;;;6.87;5.97;;;0.20;99.90;;;;;;5078307;28;20202;-72
2022/01/27 04:13:08;;;;;;;13.10;9.73;;;0.10;99.90;;;;;;5076252;28;20576;-72
2022/01/27 04:15:35;;;;;;;7.63;6.33;;;0.10;99.90;;;;;;5072052;28;20187;-72
2022/01/27 04:18:01;;;;;;;8.23;6.87;;;0.10;99.90;;;;;;5077941;28;20186;-72
2022/01/27 04:20:27;;;;;;;14.20;8.20;;;0.10;99.90;;;;;;5071181;28;20191;-71
2022/01/27 04:22:53;;;;;;;14.17;9.23;;;0.10;99.90;;;;;;5073594;28;20278;-72
2022/01/27 04:25:18;;;;;;;13.63;10.47;;;0.10;99.90;;;;;;5066151;28;20222;-72
2022/01/27 04:27:49;;;;;;;16.10;11.43;;;0.10;99.90;;;;;;5069792;28;20199;-72
2022/01/27 04:30:18;;;;;;;17.07;12.00;;;0.00;99.90;;;;;;5078347;28;20197;-72
2022/01/27 04:32:49;;;;;;;14.63;10.23;;;-0.10;99.90;;;;;;5069124;28;20646;-72
2022/01/27 04:35:19;;;;;;;14.40;10.00;;;-0.20;99.90;;;;;;5074282;28;20186;-72
2022/01/27 04:37:58;;;;;;;14.70;10.50;;;-0.10;99.90;;;;;;5074061;28;20200;-72
2022/01/27 04:41:04;;;;;;;16.80;12.17;;;0.00;99.90;;;;;;5072106;28;20555;-73
2022/01/27 04:48:24;;;;;;;13.07;9.10;;;0.00;99.90;;;;;;5067566;28;20202;-73
2022/01/27 04:50:51;;;;;;;12.20;9.13;;;0.10;99.90;;;;;;5075089;28;20180;-72
2022/01/27 04:53:25;;;;;;;15.83;10.27;;;0.00;99.90;;;;;;5076471;28;20575;-72
2022/01/27 04:55:51;;;;;;;14.03;10.43;;;0.00;99.90;;;;;;5069687;28;20230;-72
2022/01/27 04:58:24;;;;;;;14.93;10.40;;;0.00;99.90;;;;;;5075380;28;20618;-72
2022/01/27 05:00:49;;;;;;;13.10;9.80;;;0.10;99.90;;;;;;5073479;28;20198;-72
2022/01/27 05:03:32;;;;;;;15.90;11.10;;;0.10;99.90;;;;;;5074793;28;20191;-72
2022/01/27 05:05:58;;;;;;;11.50;8.67;;;0.00;99.90;;;;;;5068777;28;20213;-72
2022/01/27 05:08:24;;;;;;;15.63;11.93;;;0.00;99.90;;;;;;5074541;28;20185;-72
2022/01/27 05:13:24;;;;;;;15.33;10.90;;;-0.10;99.90;;;;;;5076547;28;20172;-72
2022/01/27 05:15:50;;;;;;;18.27;12.17;;;-0.20;99.90;;;;;;5069497;28;20270;-72
2022/01/27 05:18:15;;;;;;;12.77;7.07;;;-0.20;99.90;;;;;;5072883;28;20265;-72
2022/01/27 05:20:42;;;;;;;14.40;11.27;;;-0.10;99.90;;;;;;5072719;28;20186;-72
2022/01/27 05:23:07;;;;;;;10.93;7.77;;;-0.10;99.90;;;;;;5066971;28;20225;-73
2022/01/27 05:25:33;;;;;;;16.23;10.13;;;0.00;99.90;;;;;;5053812;28;20208;-72
2022/01/27 05:28:00;;;;;;;10.23;6.93;;;-0.10;99.90;;;;;;5051923;28;20557;-72
2022/01/27 05:30:25;;;;;;;14.03;10.23;;;0.00;99.90;;;;;;5048026;28;20755;-72
2022/01/27 05:32:51;;;;;;;14.27;10.67;;;-0.10;99.90;;;;;;5051839;28;20180;-72
2022/01/27 05:35:17;;;;;;;16.03;11.77;;;0.00;99.90;;;;;;5052590;28;20180;-72
2022/01/27 05:37:42;;;;;;;18.13;11.20;;;-0.10;99.90;;;;;;5054253;28;20287;-72
2022/01/27 05:40:09;;;;;;;14.53;8.87;;;-0.20;99.90;;;;;;5057104;28;20183;-72
2022/01/27 05:42:34;;;;;;;16.43;11.73;;;-0.20;99.90;;;;;;5050977;28;20215;-72
2022/01/27 05:45:00;;;;;;;17.57;12.27;;;-0.30;99.90;;;;;;5055717;28;20622;-72
2022/01/27 05:47:25;;;;;;;15.53;12.23;;;-0.30;99.90;;;;;;5058957;28;20334;-72
2022/01/27 05:49:51;;;;;;;15.23;10.17;;;-0.30;99.90;;;;;;5060391;28;20266;-72
2022/01/27 05:52:17;;;;;;;9.30;6.63;;;-0.30;99.90;;;;;;5054600;28;20179;-72
2022/01/27 05:54:42;;;;;;;12.57;9.20;;;-0.10;99.90;;;;;;5060238;28;20241;-72
2022/01/27 05:57:08;;;;;;;16.47;12.40;;;0.00;99.90;;;;;;5039974;28;20637;-72
2022/01/27 05:59:34;;;;;;;16.50;11.87;;;0.00;99.90;;;;;;5053155;28;20298;-72
2022/01/27 06:02:00;;;;;;;8.63;6.57;;;-0.10;99.90;;;;;;5058755;28;20186;-72
2022/01/27 06:04:26;;;;;;;13.40;10.33;;;-0.10;99.90;;;;;;5058463;28;20243;-72
2022/01/27 06:06:53;;;;;;;12.80;7.50;;;-0.10;99.90;;;;;;5054931;28;20207;-72
2022/01/27 06:09:19;;;;;;;13.97;9.97;;;0.00;99.90;;;;;;5054486;28;20203;-72
2022/01/27 06:11:44;;;;;;;13.77;11.27;;;0.00;99.90;;;;;;5049741;28;20642;-72
2022/01/27 06:14:10;;;;;;;13.07;10.10;;;0.00;99.90;;;;;;5053918;28;20187;-72
2022/01/27 06:16:36;;;;;;;10.97;7.30;;;0.00;99.90;;;;;;5050192;28;20205;-72
2022/01/27 06:19:04;;;;;;;16.50;11.50;;;0.10;99.90;;;;;;5052261;28;20180;-72
2022/01/27 06:21:30;;;;;;;15.53;10.70;;;0.10;99.90;;;;;;5052997;28;20176;-72
2022/01/27 06:23:56;;;;;;;17.43;11.47;;;0.00;99.90;;;;;;5057724;28;20693;-72
2022/01/27 06:26:22;;;;;;;14.57;11.37;;;0.00;99.90;;;;;;5068387;28;20231;-71
2022/01/27 06:28:48;;;;;;;9.73;7.33;;;0.00;99.90;;;;;;5070312;28;20180;-71
2022/01/27 06:31:14;;;;;;;12.53;10.30;;;0.00;99.90;;;;;;5067873;28;20183;-72
2022/01/27 06:33:39;;;;;;;15.33;7.07;;;0.00;99.90;;;;;;5073433;28;20176;-72
2022/01/27 06:36:05;;;;;;;15.87;11.27;;;0.00;99.90;;;;;;5082626;28;20745;-71
2022/01/27 06:38:31;;;;;;;13.77;11.03;;;-0.10;99.90;;;;;;5074265;28;20198;-71
2022/01/27 06:40:56;;;;;;;13.30;10.73;;;-0.10;99.90;;;;;;5071410;28;20171;-72
2022/01/27 06:43:22;;;;;;;12.93;9.17;;;-0.10;99.90;;;;;;5055794;28;20183;-72
2022/01/27 06:45:48;;;;;;;15.30;11.30;;;0.00;99.90;;;;;;5069996;28;20225;-71
2022/01/27 06:48:13;;;;;;;10.30;6.73;;;0.00;99.90;;;;;;5070116;28;20187;-72
2022/01/27 06:50:39;;;;;;;12.23;9.13;;;0.00;99.90;;;;;;5075047;28;20179;-72
2022/01/27 06:53:05;;;;;;;14.87;12.07;;;0.00;99.90;;;;;;5074657;28;20173;-71
2022/01/27 06:55:31;;;;;;;7.30;6.60;;;0.00;99.90;;;;;;5054022;28;20195;-72
2022/01/27 06:57:56;;;;;;;14.70;11.13;;;0.10;99.90;;;;;;5068086;28;20206;-72
2022/01/27 07:00:22;;;;;;;13.07;9.50;;;0.10;99.90;;;;;;5069114;28;20241;-72
2022/01/27 07:02:47;;;;;;;15.67;11.60;;;0.10;99.90;;;;;;5069229;28;20317;-72
2022/01/27 07:05:15;;;;;;;12.00;8.40;;;0.10;99.90;;;;;;5072895;28;20217;-72
2022/01/27 07:07:42;;;;;;;13.73;8.57;;;0.10;99.90;;;;;;5075569;28;20191;-72
2022/01/27 07:10:08;;;;;;;14.60;10.70;;;0.10;99.90;;;;;;5072540;28;20640;-72
2022/01/27 07:12:34;;;;;;;16.20;12.13;;;0.10;99.90;;;;;;5071770;28;20276;-72
2022/01/27 07:15:00;;;;;;;15.43;10.00;;;0.10;99.90;;;;;;5077412;28;20186;-72
2022/01/27 07:17:26;;;;;;;15.87;9.93;;;0.00;99.90;;;;;;5075899;28;20601;-71
2022/01/27 07:19:51;;;;;;;13.90;10.90;;;0.00;99.90;;;;;;5074662;28;20187;-71
2022/01/27 07:22:17;;;;;;;14.03;10.00;;;-0.10;99.90;;;;;;5075558;28;21157;-71
2022/01/27 07:24:42;;;;;;;16.77;11.70;;;-0.10;99.90;;;;;;5073537;28;20239;-72
2022/01/27 07:27:08;;;;;;;15.63;11.00;;;-0.10;99.90;;;;;;5069028;28;20252;-71
2022/01/27 07:29:35;;;;;;;16.23;10.87;;;0.00;99.90;;;;;;5076346;28;20176;-71
2022/01/27 07:32:00;;;;;;;15.10;11.40;;;0.20;99.90;;;;;;5073471;28;20232;-71
2022/01/27 07:34:26;;;;;;;10.57;7.47;;;0.20;99.90;;;;;;5078756;28;20180;-71
2022/01/27 07:36:56;;;;;;;13.40;9.77;;;0.30;99.90;;;;;;5065589;28;20348;-72
2022/01/27 07:39:22;;;;;;;12.53;8.53;;;0.30;99.90;;;;;;5070714;28;20519;-71
2022/01/27 07:41:47;;;;;;;13.30;10.70;;;0.30;99.90;;;;;;5077887;28;20234;-71
2022/01/27 07:44:13;;;;;;;7.73;6.87;;;0.30;99.90;;;;;;5071869;28;20198;-71
2022/01/27 07:46:39;;;;;;;13.30;9.77;;;0.40;99.90;;;;;;5048729;28;20195;-71
2022/01/27 07:49:04;;;;;;;16.10;10.33;;;0.50;99.90;;;;;;5073018;28;20178;-72
2022/01/27 07:51:30;;;;;;;15.63;11.27;;;0.60;99.90;;;;;;5066673;28;20211;-70
2022/01/27 07:53:55;;;;;;;13.47;10.30;;;0.60;99.90;;;;;;5073173;28;20198;-70
2022/01/27 07:56:21;;;;;;;15.80;12.00;;;0.60;99.90;;;;;;5066404;28;20690;-71
2022/01/27 07:58:47;;;;;;;17.57;11.77;;;0.50;99.90;;;;;;5068454;28;20676;-73
2022/01/27 08:01:12;;;;;;;17.47;12.23;;;0.40;99.90;;;;;;5073272;28;20301;-71
2022/01/27 08:03:39;;;;;;;13.23;10.07;;;0.30;99.90;;;;;;5067730;28;20183;-71
2022/01/27 08:06:05;;;;;;;14.57;9.97;;;0.30;99.90;;;;;;5066508;28;20200;-71
2022/01/27 08:08:31;;;;;;;16.53;9.90;;;0.30;99.90;;;;;;5064983;28;20172;-71
2022/01/27 08:10:58;;;;;;;14.97;10.23;;;0.40;99.90;;;;;;5065039;28;20259;-71
2022/01/27 08:13:24;;;;;;;13.70;8.97;;;0.40;99.90;;;;;;5064194;28;20182;-69
2022/01/27 08:15:49;;;;;;;13.33;10.13;;;0.50;99.90;;;;;;5069319;28;20193;-69
2022/01/27 08:18:15;;;;;;;10.67;7.67;;;0.50;99.90;;;;;;5070031;28;20191;-70
2022/01/27 08:20:41;;;;;;;15.97;11.67;;;0.70;99.90;;;;;;5071383;28;20213;-72
2022/01/27 08:23:07;;;;;;;15.33;10.97;;;0.80;99.90;;;;;;5070711;28;20561;-72
2022/01/27 08:25:33;;;;;;;15.97;10.67;;;0.90;99.90;;;;;;5055814;28;20582;-72
2022/01/27 08:28:02;;;;;;;16.50;12.50;;;1.10;99.90;;;;;;5056954;28;20617;-71
2022/01/27 08:30:35;;;;;;;15.97;12.10;;;1.10;99.90;;;;;;5066829;28;20267;-72
2022/01/27 08:33:05;;;;;;;16.77;12.37;;;1.20;99.90;;;;;;5061240;28;20182;-72
2022/01/27 08:35:32;;;;;;;17.30;11.80;;;1.30;99.90;;;;;;5059379;28;20271;-72
2022/01/27 08:37:58;;;;;;;16.10;11.57;;;1.30;99.90;;;;;;5065552;28;20218;-72
2022/01/27 08:40:25;;;;;;;14.50;11.10;;;1.40;99.90;;;;;;5067851;28;20183;-72
2022/01/27 08:42:51;;;;;;;12.90;9.30;;;1.30;99.90;;;;;;5067052;28;20215;-72
2022/01/27 08:45:19;;;;;;;13.07;10.17;;;1.40;99.90;;;;;;5067743;28;20283;-72
2022/01/27 08:47:45;;;;;;;19.83;12.93;;;1.50;99.90;;;;;;5068592;28;20223;-72
2022/01/27 08:50:14;;;;;;;13.47;8.20;;;1.50;99.90;;;;;;5070180;28;20221;-72
2022/01/27 08:52:40;;;;;;;15.17;11.77;;;1.40;99.90;;;;;;5071711;28;20267;-71
2022/01/27 08:55:07;;;;;;;16.27;11.63;;;1.40;99.90;;;;;;5076145;28;20182;-71
2022/01/27 08:57:34;;;;;;;16.90;10.17;;;1.30;99.90;;;;;;5075301;28;20195;-71
2022/01/27 09:00:01;;;;;;;13.90;10.73;;;1.40;99.90;;;;;;5066020;28;20175;-71
2022/01/27 09:02:28;;;;;;;17.97;12.60;;;1.40;99.90;;;;;;5071508;28;20604;-73
2022/01/27 09:04:53;;;;;;;18.33;12.27;;;1.40;99.90;;;;;;5065354;28;20198;-73
2022/01/27 09:07:19;;;;;;;19.17;13.93;;;1.40;99.90;;;;;;5065321;28;20203;-75
2022/01/27 09:09:46;;;;;;;18.60;13.43;;;1.10;99.90;;;;;;5069162;28;20180;-73
2022/01/27 09:12:13;;;;;;;20.70;11.10;;;1.00;99.90;;;;;;5064453;28;20703;-72
2022/01/27 09:14:41;;;;;;;21.80;11.03;;;0.90;99.90;;;;;;5058940;28;20594;-72
2022/01/27 09:17:11;;;;;;;16.00;12.03;;;1.00;99.90;;;;;;5070217;28;20231;-75
2022/01/27 09:19:41;;;;;;;13.97;9.67;;;1.00;99.90;;;;;;5066515;28;20176;-75
2022/01/27 09:22:13;;;;;;;17.30;11.60;;;1.00;99.90;;;;;;5076281;28;20265;-75
2022/01/27 09:24:51;;;;;;;22.13;12.07;;;1.00;99.90;;;;;;5071964;28;20208;-74
2022/01/27 09:27:18;;;;;;;15.70;9.13;;;1.00;99.90;;;;;;5066108;28;20283;-75
2022/01/27 09:29:44;;;;;;;15.13;9.00;;;1.00;99.90;;;;;;5061967;28;20259;-75
2022/01/27 09:32:11;;;;;;;16.00;9.83;;;1.10;99.90;;;;;;5069905;28;20254;-78
2022/01/27 09:34:37;;;;;;;19.97;12.40;;;0.90;99.90;;;;;;5067700;28;20171;-75
2022/01/27 09:37:03;;;;;;;16.73;9.43;;;1.00;99.90;;;;;;5051664;28;20206;-74
2022/01/27 09:39:31;;;;;;;22.67;13.20;;;1.10;99.90;;;;;;5068431;28;20183;-76
2022/01/27 09:41:57;;;;;;;21.80;13.10;;;1.10;99.90;;;;;;5073717;28;20705;-73
2022/01/27 09:44:30;;;;;;;20.47;13.13;;;1.10;99.90;;;;;;5063248;28;20624;-75
2022/01/27 09:47:07;;;;;;;17.30;11.20;;;1.20;99.90;;;;;;5062352;28;20207;-75
2022/01/27 09:49:41;;;;;;;13.67;10.17;;;1.10;99.90;;;;;;5062013;28;20558;-77
2022/01/27 09:52:07;;;;;;;16.73;9.43;;;1.10;99.90;;;;;;5073629;28;20176;-74
2022/01/27 09:54:34;;;;;;;15.17;9.10;;;1.10;99.90;;;;;;5054572;28;20542;-72
2022/01/27 09:57:00;;;;;;;14.00;10.20;;;1.20;99.90;;;;;;5066159;28;20202;-71
2022/01/27 09:59:26;;;;;;;24.23;14.27;;;1.20;99.90;;;;;;5063819;28;20185;-72
2022/01/27 10:02:07;;;;;;;22.00;13.73;;;1.00;99.90;;;;;;5072705;28;20187;-72
2022/01/27 10:04:46;;;;;;;19.43;12.07;;;1.00;99.90;;;;;;5069008;28;20252;-72
2022/01/27 10:07:14;;;;;;;22.70;13.53;;;1.10;99.90;;;;;;5065832;28;20203;-72
2022/01/27 10:09:54;;;;;;;21.70;14.40;;;1.30;99.90;;;;;;5065572;28;20186;-72
2022/01/27 10:12:25;;;;;;;25.03;14.17;;;1.40;99.90;;;;;;5063296;28;20661;-72
2022/01/27 10:15:01;;;;;;;15.57;9.10;;;1.30;99.90;;;;;;5063504;28;20182;-72
2022/01/27 10:17:28;;;;;;;23.37;12.53;;;1.40;99.90;;;;;;5066618;28;20202;-72
2022/01/27 10:19:55;;;;;;;21.13;10.73;;;1.60;99.90;;;;;;5068659;28;20270;-72
2022/01/27 10:22:21;;;;;;;18.30;12.00;;;1.70;99.90;;;;;;5063815;28;20248;-72
2022/01/27 10:25:00;;;;;;;19.13;12.37;;;1.70;99.90;;;;;;5067517;28;20683;-73
2022/01/27 10:27:45;;;;;;;22.27;14.73;;;1.50;99.90;;;;;;5069541;28;20696;-72
2022/01/27 10:32:56;;;;;;;20.83;12.20;;;1.30;99.90;;;;;;5072970;28;20207;-73
2022/01/27 10:35:23;;;;;;;20.10;12.83;;;1.30;99.90;;;;;;5072715;28;20518;-72
2022/01/27 10:38:08;;;;;;;21.53;12.17;;;1.30;99.90;;;;;;5075892;28;20669;-72
2022/01/27 10:40:42;;;;;;;24.40;14.07;;;1.40;99.90;;;;;;5072355;28;20190;-73
2022/01/27 10:43:09;;;;;;;21.13;13.33;;;1.40;99.90;;;;;;5073420;28;20170;-73
2022/01/27 10:45:38;;;;;;;22.67;14.17;;;1.40;99.90;;;;;;5073393;28;20245;-73
2022/01/27 10:48:08;;;;;;;21.23;12.33;;;1.30;99.90;;;;;;5071537;28;20181;-73
2022/01/27 10:51:00;;;;;;;20.70;12.53;;;1.30;99.90;;;;;;5071483;28;20186;-73
2022/01/27 10:53:45;;;;;;;19.90;11.20;;;1.50;99.90;;;;;;5076213;28;20175;-70
2022/01/27 10:56:20;;;;;;;19.43;12.80;;;1.60;99.90;;;;;;5069542;28;20281;-75
2022/01/27 10:58:45;;;;;;;20.40;11.93;;;1.70;99.90;;;;;;5074859;28;20172;-75
2022/01/27 11:01:21;;;;;;;20.03;11.83;;;1.60;99.90;;;;;;5079735;28;20185;-73
2022/01/27 11:03:50;;;;;;;21.87;14.27;;;1.50;99.90;;;;;;5073177;28;20182;-74
2022/01/27 11:06:16;;;;;;;20.97;14.20;;;1.40;99.90;;;;;;5073184;28;20247;-74
2022/01/27 11:08:42;;;;;;;20.93;10.27;;;1.20;99.90;;;;;;5067744;28;20179;-74
2022/01/27 11:11:08;;;;;;;22.53;13.87;;;1.20;99.90;;;;;;5080684;28;20178;-75
2022/01/27 11:13:35;;;;;;;20.90;13.27;;;1.20;99.90;;;;;;5072258;28;20175;-74
2022/01/27 11:16:03;;;;;;;20.77;13.60;;;1.20;99.90;;;;;;5067877;28;20219;-73
2022/01/27 11:18:30;;;;;;;22.27;14.37;;;1.10;99.90;;;;;;5070204;28;20184;-74
2022/01/27 11:21:01;;;;;;;21.20;13.67;;;1.20;99.90;;;;;;5080420;28;20182;-75
2022/01/27 11:23:49;;;;;;;21.93;12.93;;;1.20;99.90;;;;;;5067031;28;20553;-74
2022/01/27 11:26:22;;;;;;;22.73;13.47;;;1.30;99.90;;;;;;5052371;28;20230;-77
2022/01/27 11:28:48;;;;;;;18.97;11.70;;;1.40;99.90;;;;;;5049646;28;20192;-74
2022/01/27 11:31:33;;;;;;;13.30;9.47;;;1.50;99.90;;;;;;5050504;28;20666;-74
2022/01/27 11:34:04;;;;;;;14.47;10.13;;;1.50;99.90;;;;;;5052154;28;20660;-74
2022/01/27 11:36:30;;;;;;;20.20;11.77;;;1.70;99.90;;;;;;5052557;28;20214;-75
2022/01/27 11:38:58;;;;;;;16.07;10.97;;;1.60;99.90;;;;;;5056185;28;20176;-75
2022/01/27 11:41:45;;;;;;;15.33;11.10;;;1.70;99.90;;;;;;5054867;28;20635;-75
2022/01/27 11:44:22;;;;;;;16.97;11.50;;;1.50;99.90;;;;;;5050300;28;20661;-74
2022/01/27 11:47:10;;;;;;;15.30;11.30;;;1.40;99.90;;;;;;5052130;28;20200;-73
2022/01/27 11:49:45;;;;;;;16.73;11.03;;;1.20;99.90;;;;;;5050811;28;20195;-73
2022/01/27 11:52:22;;;;;;;14.60;9.47;;;1.00;99.90;;;;;;5052094;28;20221;-73
2022/01/27 11:54:48;;;;;;;18.17;9.87;;;1.20;99.90;;;;;;5053837;28;20184;-73
2022/01/27 11:57:38;;;;;;;17.70;12.13;;;1.10;99.90;;;;;;5051560;28;20219;-74
2022/01/27 12:00:19;;;;;;;23.00;14.17;;;1.00;99.90;;;;;;5052147;28;20191;-75
2022/01/27 12:02:56;;;;;;;22.63;12.40;;;0.80;99.90;;;;;;5050035;28;20187;-73
2022/01/27 12:05:27;;;;;;;15.10;9.80;;;0.80;99.90;;;;;;5049798;28;20291;-72
2022/01/27 12:08:12;;;;;;;19.13;12.50;;;0.70;99.90;;;;;;5050404;28;20282;-73
2022/01/27 12:10:42;;;;;;;20.57;11.60;;;0.70;99.90;;;;;;5053752;28;20183;-74
2022/01/27 12:13:35;;;;;;;13.90;7.37;;;0.80;99.90;;;;;;5051216;28;20610;-73
2022/01/27 12:18:56;;;;;;;23.73;13.63;;;1.10;99.90;;;;;;5052024;28;20655;-72
2022/01/27 12:21:27;;;;;;;17.50;9.47;;;1.10;99.90;;;;;;5055795;28;20206;-73
2022/01/27 12:24:11;;;;;;;20.13;13.53;;;1.10;99.90;;;;;;5053391;28;20287;-71
2022/01/27 12:26:58;;;;;;;20.53;13.73;;;1.00;99.90;;;;;;5068157;28;20758;-72
2022/01/27 12:29:25;;;;;;;20.80;13.13;;;0.90;99.90;;;;;;5068258;28;20176;-73
2022/01/27 12:31:53;;;;;;;16.33;8.10;;;0.90;99.90;;;;;;5074930;28;20284;-75
2022/01/27 12:34:20;;;;;;;21.93;11.37;;;0.90;99.90;;;;;;5050790;28;20195;-74
2022/01/27 12:37:12;;;;;;;23.40;13.63;;;0.90;99.90;;;;;;5067519;28;20733;-75
2022/01/27 12:39:44;;;;;;;23.87;13.30;;;0.90;99.90;;;;;;5069878;28;21041;-76
2022/01/27 12:42:15;;;;;;;25.47;15.17;;;0.80;99.90;;;;;;5073206;28;20193;-75
2022/01/27 12:45:00;;;;;;;23.13;12.60;;;0.80;99.90;;;;;;5072195;28;20233;-75
2022/01/27 12:47:28;;;;;;;19.57;11.03;;;0.80;99.90;;;;;;5067183;28;20253;-75
2022/01/27 12:50:03;;;;;;;23.53;13.47;;;0.90;99.90;;;;;;5069590;28;20720;-75
2022/01/27 12:52:32;;;;;;;26.23;13.63;;;0.80;99.90;;;;;;5067522;28;20201;-75
2022/01/27 12:54:58;;;;;;;22.67;12.43;;;0.80;99.90;;;;;;5074336;28;20186;-75
2022/01/27 12:57:26;;;;;;;17.70;11.70;;;0.90;99.90;;;;;;5069536;28;20278;-76
2022/01/27 12:59:54;;;;;;;20.07;10.63;;;0.90;99.90;;;;;;5072946;28;20183;-75
2022/01/27 13:02:21;;;;;;;19.63;10.60;;;1.10;99.90;;;;;;5073094;28;20704;-76
2022/01/27 13:04:49;;;;;;;17.60;9.63;;;1.30;99.90;;;;;;5072397;28;20211;-76
2022/01/27 13:07:15;;;;;;;20.70;11.80;;;1.30;99.90;;;;;;5072190;28;20668;-73
2022/01/27 13:09:43;;;;;;;19.90;10.97;;;1.30;99.90;;;;;;5073804;28;20190;-73
2022/01/27 13:12:19;;;;;;;15.57;9.17;;;1.20;99.90;;;;;;5071769;28;20179;-72
2022/01/27 13:15:14;;;;;;;15.20;7.47;;;1.40;99.90;;;;;;5064622;28;20658;-73
2022/01/27 13:17:47;;;;;;;18.93;10.40;;;1.60;99.90;;;;;;5064131;28;20195;-74
2022/01/27 13:20:22;;;;;;;17.60;12.00;;;1.70;99.90;;;;;;5052192;28;20255;-72
2022/01/27 13:22:52;;;;;;;16.70;9.13;;;1.70;99.90;;;;;;5066837;28;20676;-73
2022/01/27 13:25:20;;;;;;;19.23;11.73;;;1.80;99.90;;;;;;5067848;28;20227;-73
2022/01/27 13:28:08;;;;;;;16.13;10.37;;;1.90;99.90;;;;;;5065876;28;20200;-73
2022/01/27 13:30:35;;;;;;;15.90;8.33;;;1.70;99.90;;;;;;5054555;28;20198;-74
2022/01/27 13:33:06;;;;;;;13.67;7.87;;;1.60;99.90;;;;;;5069969;28;20265;-73
2022/01/27 13:35:34;;;;;;;7.53;5.30;;;1.60;99.90;;;;;;5064036;28;20199;-74